Time;durP1;ratioP1;P1;durP2;ratioP2;P2;SDS_P1;SDS_P2;PMS_P1;PMS_P2;Temp;Humidity;BMP_temperature;BMP_pressure;BME280_temperature;BME280_humidity;BME280_pressure;Samples;Min_cycle;Max_cycle;Signal;HPM_P1;HPM_P2
2023/09/24 03:20:54;;;;;;;;;;;18.20;54.10;;;;;;5029116;28;20008;-69
2023/09/24 03:23:20;;;;;;;;;;;18.20;54.80;;;;;;5032025;28;20368;-68
2023/09/24 03:25:47;;;;;;;;;;;18.20;53.50;;;;;;5031554;28;19913;-69
2023/09/24 03:28:14;;;;;;;;;;;18.20;54.20;;;;;;5030407;28;19909;-71
2023/09/24 03:30:40;;;;;;;;;;;18.30;54.80;;;;;;5001897;28;19935;-85
2023/09/24 03:33:07;;;;;;;;;;;18.30;55.30;;;;;;5001046;28;19915;-87
2023/09/24 03:35:33;;;;;;;;;;;18.30;54.40;;;;;;5032702;28;19920;-86
2023/09/24 03:38:00;;;;;;;;;;;18.20;53.80;;;;;;5033517;28;19905;-89
2023/09/24 03:40:27;;;;;;;;;;;18.20;54.40;;;;;;5017480;28;20304;-89
2023/09/24 03:42:54;;;;;;;;;;;18.20;54.20;;;;;;5016879;28;19912;-89
2023/09/24 03:45:23;;;;;;;;;;;18.20;54.00;;;;;;5029264;28;19958;-88
2023/09/24 03:47:49;;;;;;;;;;;18.20;54.00;;;;;;5018738;28;19962;-86
2023/09/24 03:50:19;;;;;;;;;;;18.10;53.90;;;;;;5035626;28;20398;-83
2023/09/24 03:52:47;;;;;;;;;;;18.10;54.70;;;;;;5035996;28;20331;-83
2023/09/24 03:55:15;;;;;;;;;;;18.10;54.90;;;;;;5034155;28;20649;-67
2023/09/24 03:57:42;;;;;;;;;;;18.20;54.20;;;;;;5034269;28;19909;-67
2023/09/24 04:00:21;;;;;;;;;;;18.10;54.80;;;;;;5034195;28;20286;-68
2023/09/24 04:02:48;;;;;;;;;;;18.10;54.80;;;;;;5035426;28;19932;-67
2023/09/24 04:05:17;;;;;;;;;;;18.20;53.50;;;;;;5035258;28;19906;-67
2023/09/24 04:07:46;;;;;;;;;;;18.20;53.40;;;;;;5035199;28;19905;-67
2023/09/24 04:10:14;;;;;;;;;;;18.20;53.50;;;;;;5033760;28;19913;-68
2023/09/24 04:12:46;;;;;;;;;;;18.20;54.10;;;;;;5034760;28;19905;-68
2023/09/24 04:15:12;;;;;;;;;;;18.20;53.40;;;;;;5033698;28;20299;-68
2023/09/24 04:17:42;;;;;;;;;;;18.20;54.50;;;;;;5035177;28;19917;-68
2023/09/24 04:20:15;;;;;;;;;;;18.20;54.30;;;;;;5034059;28;19928;-69
2023/09/24 04:22:45;;;;;;;;;;;18.10;53.10;;;;;;5031288;28;20289;-67
2023/09/24 04:25:15;;;;;;;;;;;18.10;53.40;;;;;;5034666;28;19975;-67
2023/09/24 04:27:42;;;;;;;;;;;18.00;53.80;;;;;;5034319;28;19909;-67
2023/09/24 04:30:15;;;;;;;;;;;18.00;53.60;;;;;;5034676;28;19981;-67
2023/09/24 04:32:42;;;;;;;;;;;18.00;53.80;;;;;;5032500;28;19912;-68
2023/09/24 04:35:10;;;;;;;;;;;18.00;53.50;;;;;;5033933;28;19971;-67
2023/09/24 04:37:39;;;;;;;;;;;17.90;53.80;;;;;;5032080;28;19909;-69
2023/09/24 04:40:11;;;;;;;;;;;17.90;54.10;;;;;;5033442;28;19924;-68
2023/09/24 04:42:38;;;;;;;;;;;18.00;54.60;;;;;;5034215;28;20515;-70
2023/09/24 04:45:06;;;;;;;;;;;18.00;55.30;;;;;;5033340;28;20217;-70
2023/09/24 04:47:32;;;;;;;;;;;18.00;55.00;;;;;;5034279;28;20283;-69
2023/09/24 04:49:59;;;;;;;;;;;18.00;54.80;;;;;;5034189;28;19912;-70
2023/09/24 04:52:26;;;;;;;;;;;18.00;55.70;;;;;;5014222;28;19912;-70
2023/09/24 04:54:55;;;;;;;;;;;18.10;56.00;;;;;;5027412;28;19967;-70
2023/09/24 04:57:22;;;;;;;;;;;18.10;56.20;;;;;;5033320;28;19920;-69
2023/09/24 04:59:53;;;;;;;;;;;18.10;56.10;;;;;;5034691;28;20363;-70
2023/09/24 05:02:21;;;;;;;;;;;18.10;57.10;;;;;;5034149;28;20352;-70
2023/09/24 05:04:48;;;;;;;;;;;18.10;57.20;;;;;;5014327;28;19905;-69
2023/09/24 05:07:15;;;;;;;;;;;18.10;57.10;;;;;;5014451;28;19909;-70
2023/09/24 05:09:41;;;;;;;;;;;18.10;56.20;;;;;;5008265;28;19973;-70
2023/09/24 05:12:08;;;;;;;;;;;18.00;57.70;;;;;;5016425;28;20016;-70
2023/09/24 05:14:35;;;;;;;;;;;18.00;56.80;;;;;;5031617;28;19928;-69
2023/09/24 05:17:01;;;;;;;;;;;18.00;57.30;;;;;;5032930;28;19924;-70
2023/09/24 05:19:28;;;;;;;;;;;18.00;56.50;;;;;;5017507;28;20287;-69
2023/09/24 05:21:55;;;;;;;;;;;18.00;56.80;;;;;;5034318;28;19978;-70
2023/09/24 05:24:21;;;;;;;;;;;18.00;56.50;;;;;;5053668;28;20330;-68
2023/09/24 05:26:48;;;;;;;;;;;18.00;56.70;;;;;;5053929;28;19999;-69
2023/09/24 05:29:14;;;;;;;;;;;18.00;57.20;;;;;;5053599;28;19909;-69
2023/09/24 05:31:41;;;;;;;;;;;18.00;58.00;;;;;;5034806;28;19931;-70
2023/09/24 05:34:07;;;;;;;;;;;18.00;57.20;;;;;;5052624;28;19963;-72
2023/09/24 05:36:34;;;;;;;;;;;18.00;57.80;;;;;;5035865;28;19996;-73
2023/09/24 05:39:01;;;;;;;;;;;18.00;58.00;;;;;;5053371;28;19912;-75
2023/09/24 05:41:28;;;;;;;;;;;18.00;57.20;;;;;;5046578;28;19917;-73
2023/09/24 05:44:00;;;;;;;;;;;17.90;57.80;;;;;;5049361;28;19986;-75
2023/09/24 05:46:27;;;;;;;;;;;17.90;58.20;;;;;;5050835;28;19962;-74
2023/09/24 05:48:58;;;;;;;;;;;18.00;58.10;;;;;;5033159;28;19963;-73
2023/09/24 05:51:25;;;;;;;;;;;18.00;57.60;;;;;;5031777;28;20319;-76
2023/09/24 05:53:52;;;;;;;;;;;17.90;57.30;;;;;;5048748;28;19917;-70
2023/09/24 05:56:19;;;;;;;;;;;17.90;56.80;;;;;;5050134;28;19908;-70
2023/09/24 05:58:46;;;;;;;;;;;17.90;58.10;;;;;;5050348;28;19909;-70
2023/09/24 06:01:15;;;;;;;;;;;17.80;58.00;;;;;;5047619;28;19913;-69
2023/09/24 06:03:42;;;;;;;;;;;17.80;57.70;;;;;;5050267;28;20375;-70
2023/09/24 06:06:09;;;;;;;;;;;17.80;58.20;;;;;;5049964;28;19912;-68
2023/09/24 06:08:37;;;;;;;;;;;17.80;57.80;;;;;;5048882;28;19916;-68
2023/09/24 06:11:04;;;;;;;;;;;17.70;57.80;;;;;;5031881;28;19917;-67
2023/09/24 06:13:32;;;;;;;;;;;17.70;58.00;;;;;;5050031;28;19956;-67
2023/09/24 06:16:02;;;;;;;;;;;17.70;58.20;;;;;;5032656;28;20031;-68
2023/09/24 06:18:28;;;;;;;;;;;17.70;58.50;;;;;;5030375;28;20333;-68
2023/09/24 06:20:56;;;;;;;;;;;17.70;59.10;;;;;;5050450;28;19921;-68
2023/09/24 06:23:23;;;;;;;;;;;17.70;59.00;;;;;;5050076;28;19967;-67
2023/09/24 06:25:59;;;;;;;;;;;17.70;57.40;;;;;;5044589;28;19912;-67
2023/09/24 06:28:25;;;;;;;;;;;17.70;58.50;;;;;;5030789;28;19958;-68
2023/09/24 06:31:01;;;;;;;;;;;17.70;59.20;;;;;;5049651;28;20007;-68
2023/09/24 06:33:28;;;;;;;;;;;17.70;59.00;;;;;;5049835;28;19915;-69
2023/09/24 06:35:55;;;;;;;;;;;17.70;58.80;;;;;;5046712;28;19916;-68
2023/09/24 06:38:21;;;;;;;;;;;17.70;59.10;;;;;;5047903;28;19909;-68
2023/09/24 06:40:58;;;;;;;;;;;17.70;59.40;;;;;;5048613;28;20709;-68
2023/09/24 06:43:27;;;;;;;;;;;17.70;58.60;;;;;;5050104;28;19913;-68
2023/09/24 06:45:54;;;;;;;;;;;17.70;58.70;;;;;;5048694;28;19931;-68
2023/09/24 06:48:24;;;;;;;;;;;17.60;58.60;;;;;;5048877;28;19919;-68
2023/09/24 06:50:53;;;;;;;;;;;17.60;58.30;;;;;;5050032;28;19995;-69
2023/09/24 06:53:20;;;;;;;;;;;17.60;58.40;;;;;;5048500;28;19919;-67
2023/09/24 06:55:47;;;;;;;;;;;17.60;58.90;;;;;;5047888;28;19917;-68
2023/09/24 06:58:14;;;;;;;;;;;17.60;59.20;;;;;;5048787;28;20283;-68
2023/09/24 07:00:40;;;;;;;;;;;17.60;59.20;;;;;;5049347;28;20011;-68
2023/09/24 12:42:18;;;;;;;;;;;15.50;73.30;;;;;;5047704;28;20012;-70
2023/09/24 12:44:45;;;;;;;;;;;15.40;73.20;;;;;;5031869;28;20307;-70
2023/09/24 12:47:11;;;;;;;;;;;15.50;73.30;;;;;;5033819;28;20389;-70
2023/09/24 12:49:38;;;;;;;;;;;15.40;73.40;;;;;;5033493;28;19959;-70
2023/09/24 12:52:04;;;;;;;;;;;15.40;73.40;;;;;;5031910;28;19952;-70
2023/09/24 12:54:31;;;;;;;;;;;15.40;73.40;;;;;;5033286;28;19917;-70
2023/09/24 12:56:58;;;;;;;;;;;15.40;73.50;;;;;;5033408;28;19932;-70
2023/09/24 12:59:27;;;;;;;;;;;15.30;73.90;;;;;;5015139;28;20386;-70
2023/09/24 13:01:54;;;;;;;;;;;15.30;74.00;;;;;;5015797;28;19959;-70
2023/09/24 13:04:20;;;;;;;;;;;15.20;74.10;;;;;;5032576;28;21165;-70
2023/09/24 13:06:47;;;;;;;;;;;15.10;74.40;;;;;;5032930;28;19932;-70
2023/09/24 13:09:20;;;;;;;;;;;15.00;74.70;;;;;;5033677;28;20315;-68
2023/09/24 13:11:47;;;;;;;;;;;15.00;75.00;;;;;;5033766;28;19944;-68
2023/09/24 13:14:14;;;;;;;;;;;14.90;74.90;;;;;;5016083;28;19916;-68
2023/09/24 13:16:46;;;;;;;;;;;14.90;75.30;;;;;;5016290;28;19909;-69
2023/09/24 13:19:12;;;;;;;;;;;14.80;75.40;;;;;;5033279;28;19909;-69
2023/09/24 13:21:40;;;;;;;;;;;14.70;75.80;;;;;;5016389;28;20003;-69
2023/09/24 13:24:07;;;;;;;;;;;14.70;75.90;;;;;;5034067;28;19948;-69
2023/09/24 13:26:34;;;;;;;;;;;14.70;76.10;;;;;;5033580;28;20346;-69
2023/09/24 13:29:00;;;;;;;;;;;14.70;75.90;;;;;;5033255;28;19932;-68
2023/09/24 13:31:27;;;;;;;;;;;14.70;76.10;;;;;;5033121;28;19951;-69
2023/09/24 13:33:54;;;;;;;;;;;14.70;76.30;;;;;;5016220;28;19917;-69
2023/09/24 13:36:22;;;;;;;;;;;14.70;76.40;;;;;;5034009;28;19905;-69
2023/09/24 13:38:52;;;;;;;;;;;14.70;76.50;;;;;;5013463;28;20283;-69
2023/09/24 13:41:18;;;;;;;;;;;14.70;76.50;;;;;;5030299;28;19916;-69
2023/09/24 13:43:45;;;;;;;;;;;14.60;76.50;;;;;;5031146;28;20418;-69
2023/09/24 13:46:11;;;;;;;;;;;14.60;76.80;;;;;;5032264;28;19944;-69
2023/09/24 13:48:38;;;;;;;;;;;14.60;77.00;;;;;;5031453;28;20396;-69
2023/09/24 13:51:05;;;;;;;;;;;14.60;77.00;;;;;;5032814;28;19909;-69
2023/09/24 13:53:32;;;;;;;;;;;14.60;77.00;;;;;;5032224;28;19909;-69
2023/09/24 13:55:58;;;;;;;;;;;14.60;77.20;;;;;;5014191;28;19916;-69
2023/09/24 13:58:25;;;;;;;;;;;14.50;77.10;;;;;;5032259;28;19928;-69
2023/09/24 14:00:54;;;;;;;;;;;14.50;77.20;;;;;;5032021;28;20027;-69
2023/09/24 14:03:21;;;;;;;;;;;14.60;77.10;;;;;;5032316;28;19994;-69
2023/09/24 14:05:48;;;;;;;;;;;14.50;77.00;;;;;;5032486;28;20274;-69
2023/09/24 14:13:46;;;;;;;;;;;14.50;77.20;;;;;;5032172;28;20013;-69
2023/09/24 14:16:13;;;;;;;;;;;14.50;77.30;;;;;;5031003;28;19909;-69
2023/09/24 14:18:40;;;;;;;;;;;14.50;77.50;;;;;;5032171;28;20266;-69
2023/09/24 14:21:09;;;;;;;;;;;14.50;77.60;;;;;;5032756;28;20003;-69
2023/09/24 14:23:36;;;;;;;;;;;14.40;77.50;;;;;;5032156;28;19912;-68
2023/09/24 14:26:03;;;;;;;;;;;14.40;77.70;;;;;;5030111;28;19909;-69
2023/09/24 14:28:31;;;;;;;;;;;14.40;77.60;;;;;;5013366;28;19963;-69
2023/09/24 14:31:02;;;;;;;;;;;14.30;77.80;;;;;;5014362;28;20232;-69
2023/09/24 14:33:29;;;;;;;;;;;14.40;77.90;;;;;;5031839;28;19913;-69
2023/09/24 14:35:57;;;;;;;;;;;14.30;78.00;;;;;;5031252;28;19927;-69
2023/09/24 14:38:23;;;;;;;;;;;14.20;77.90;;;;;;5014159;28;20340;-69
2023/09/24 14:40:50;;;;;;;;;;;14.20;78.30;;;;;;5030890;28;19909;-69
2023/09/24 14:43:16;;;;;;;;;;;14.10;78.40;;;;;;5040946;28;19920;-69
2023/09/24 14:45:44;;;;;;;;;;;14.10;78.70;;;;;;5051045;28;19909;-69
2023/09/24 14:48:10;;;;;;;;;;;14.10;78.60;;;;;;5033110;28;19915;-69
2023/09/24 14:50:41;;;;;;;;;;;14.10;78.30;;;;;;5051532;28;20322;-69
2023/09/24 14:53:07;;;;;;;;;;;14.10;78.40;;;;;;5034393;28;19913;-69
2023/09/24 14:55:43;;;;;;;;;;;14.10;78.40;;;;;;5051626;28;20271;-69
2023/09/24 14:58:09;;;;;;;;;;;14.20;78.40;;;;;;5050988;28;19915;-69
2023/09/24 15:00:36;;;;;;;;;;;14.20;78.30;;;;;;5051369;28;19971;-69
2023/09/24 15:03:03;;;;;;;;;;;14.20;78.30;;;;;;5050767;28;20309;-69
2023/09/24 15:05:29;;;;;;;;;;;14.10;78.60;;;;;;5050165;28;20290;-69
2023/09/24 15:07:56;;;;;;;;;;;14.10;78.60;;;;;;5050569;28;20039;-69
2023/09/24 15:10:22;;;;;;;;;;;14.10;78.70;;;;;;5052198;28;19912;-69
2023/09/24 15:12:49;;;;;;;;;;;14.10;78.80;;;;;;5052311;28;19905;-69
2023/09/24 15:15:16;;;;;;;;;;;14.10;78.80;;;;;;5051877;28;19920;-69
2023/09/24 15:17:45;;;;;;;;;;;14.10;79.00;;;;;;5052020;28;19923;-69
2023/09/24 15:20:11;;;;;;;;;;;14.00;79.20;;;;;;5051822;28;19905;-69
2023/09/24 15:22:38;;;;;;;;;;;14.00;79.20;;;;;;5052837;28;19905;-69
2023/09/24 15:25:05;;;;;;;;;;;14.00;79.50;;;;;;5056063;28;19995;-69
2023/09/24 15:27:31;;;;;;;;;;;14.00;79.50;;;;;;5055799;28;19915;-69
2023/09/24 15:29:58;;;;;;;;;;;13.90;79.80;;;;;;5038245;28;20287;-69
2023/09/24 15:32:24;;;;;;;;;;;13.90;79.80;;;;;;5056613;28;19909;-69
2023/09/24 15:34:51;;;;;;;;;;;13.90;79.80;;;;;;5055557;28;20401;-69
2023/09/24 15:37:18;;;;;;;;;;;13.90;79.70;;;;;;5055623;28;19905;-69
2023/09/24 15:39:44;;;;;;;;;;;13.90;79.90;;;;;;5055241;28;20359;-69
2023/09/24 15:42:11;;;;;;;;;;;14.00;79.70;;;;;;5054483;28;19920;-70
2023/09/24 15:44:37;;;;;;;;;;;14.00;79.70;;;;;;5016978;28;19924;-69
2023/09/24 15:47:04;;;;;;;;;;;14.00;79.60;;;;;;5035053;28;19932;-69
2023/09/24 15:49:34;;;;;;;;;;;14.00;79.60;;;;;;5017521;28;20371;-69
2023/09/24 15:52:01;;;;;;;;;;;14.00;79.70;;;;;;5034805;28;19909;-69
2023/09/24 15:54:28;;;;;;;;;;;13.90;79.90;;;;;;5034624;28;19924;-69
2023/09/24 15:56:54;;;;;;;;;;;14.00;80.00;;;;;;5016963;28;19908;-69
2023/09/24 15:59:21;;;;;;;;;;;14.00;80.10;;;;;;5033841;28;19916;-70
2023/09/24 16:01:48;;;;;;;;;;;13.90;80.20;;;;;;5034388;28;19913;-69
2023/09/24 16:04:14;;;;;;;;;;;13.80;80.70;;;;;;5034367;28;19909;-70
2023/09/24 16:06:41;;;;;;;;;;;13.80;81.00;;;;;;5032121;28;19947;-69
2023/09/24 16:09:07;;;;;;;;;;;13.70;81.20;;;;;;5033847;28;19916;-69
2023/09/24 16:11:34;;;;;;;;;;;13.70;81.40;;;;;;5033857;28;20347;-70
2023/09/24 16:14:01;;;;;;;;;;;13.60;81.10;;;;;;5032403;28;19916;-69
2023/09/24 16:16:27;;;;;;;;;;;13.50;81.60;;;;;;5033197;28;19909;-70
2023/09/24 16:18:55;;;;;;;;;;;13.50;81.40;;;;;;5033343;28;19938;-70
2023/09/24 16:21:22;;;;;;;;;;;13.50;81.60;;;;;;5005397;28;20264;-70
2023/09/24 16:23:49;;;;;;;;;;;13.50;81.70;;;;;;5034237;28;19955;-70
2023/09/24 16:26:15;;;;;;;;;;;13.50;81.70;;;;;;5034515;28;20343;-69
2023/09/24 16:28:42;;;;;;;;;;;13.50;81.70;;;;;;5032967;28;19928;-69
2023/09/24 16:31:09;;;;;;;;;;;13.50;82.10;;;;;;5027503;28;19916;-69
2023/09/24 16:33:35;;;;;;;;;;;13.50;82.40;;;;;;5034625;28;19909;-69
2023/09/24 16:36:02;;;;;;;;;;;13.60;82.50;;;;;;5032337;28;20355;-70
2023/09/24 16:38:29;;;;;;;;;;;13.60;82.70;;;;;;5033410;28;20004;-70
2023/09/24 16:40:58;;;;;;;;;;;13.50;82.70;;;;;;5033491;28;20211;-70
2023/09/24 16:43:25;;;;;;;;;;;13.50;82.60;;;;;;5042153;28;19923;-69
2023/09/24 16:45:52;;;;;;;;;;;13.50;82.80;;;;;;5052443;28;19944;-70
2023/09/24 16:48:18;;;;;;;;;;;13.50;82.90;;;;;;5053690;28;19961;-70
2023/09/24 16:50:46;;;;;;;;;;;13.50;83.10;;;;;;5035761;28;19916;-69
2023/09/24 16:53:13;;;;;;;;;;;13.40;83.00;;;;;;5052883;28;19999;-70
2023/09/24 16:55:39;;;;;;;;;;;13.40;83.00;;;;;;5052906;28;19923;-70
2023/09/24 16:58:06;;;;;;;;;;;13.40;83.10;;;;;;5052943;28;19994;-70
2023/09/24 17:00:36;;;;;;;;;;;13.40;83.30;;;;;;5052793;28;19909;-69
2023/09/24 17:03:04;;;;;;;;;;;13.40;83.10;;;;;;5034942;28;20394;-69
2023/09/24 17:05:36;;;;;;;;;;;13.40;83.20;;;;;;5034284;28;19908;-70
2023/09/24 17:08:04;;;;;;;;;;;13.40;83.20;;;;;;5051566;28;19992;-69
2023/09/24 17:10:31;;;;;;;;;;;13.30;83.20;;;;;;5053710;28;20047;-69
2023/09/24 17:12:57;;;;;;;;;;;13.30;83.50;;;;;;5053838;28;19977;-69
2023/09/24 17:15:27;;;;;;;;;;;13.30;83.20;;;;;;5036199;28;19994;-69
2023/09/24 17:17:54;;;;;;;;;;;13.30;83.20;;;;;;5036152;28;19908;-69
2023/09/24 17:20:24;;;;;;;;;;;13.30;83.30;;;;;;5035244;28;19913;-69
2023/09/24 17:22:51;;;;;;;;;;;13.30;83.40;;;;;;5053841;28;19909;-69
2023/09/24 17:25:17;;;;;;;;;;;13.20;83.60;;;;;;5053956;28;19905;-70
2023/09/24 17:27:44;;;;;;;;;;;13.20;83.60;;;;;;5054002;28;19908;-69
2023/09/24 17:30:12;;;;;;;;;;;13.20;83.50;;;;;;5035850;28;19905;-70
2023/09/24 17:32:39;;;;;;;;;;;13.20;83.30;;;;;;5053759;28;20366;-70
2023/09/24 17:35:08;;;;;;;;;;;13.20;83.40;;;;;;5053511;28;20416;-70
2023/09/24 17:37:35;;;;;;;;;;;13.20;83.30;;;;;;5033907;28;19912;-70
2023/09/24 17:40:03;;;;;;;;;;;13.20;83.40;;;;;;5033491;28;20000;-70
2023/09/24 17:42:30;;;;;;;;;;;13.20;83.40;;;;;;5046692;28;19987;-70
2023/09/24 17:44:56;;;;;;;;;;;13.10;83.40;;;;;;5052873;28;19963;-70
2023/09/24 17:47:23;;;;;;;;;;;13.10;83.50;;;;;;5052421;28;19909;-70
2023/09/24 17:49:49;;;;;;;;;;;13.10;83.50;;;;;;5051243;28;19974;-70
2023/09/24 17:52:17;;;;;;;;;;;13.20;83.10;;;;;;5051002;28;19912;-70
2023/09/24 17:54:43;;;;;;;;;;;13.10;83.30;;;;;;5052293;28;20023;-70
2023/09/24 17:57:10;;;;;;;;;;;13.10;83.40;;;;;;5034110;28;20367;-70
2023/09/24 17:59:37;;;;;;;;;;;13.20;83.20;;;;;;5049440;28;19909;-71
2023/09/24 18:02:03;;;;;;;;;;;13.10;83.30;;;;;;5047864;28;19917;-70
2023/09/24 18:04:30;;;;;;;;;;;13.10;83.80;;;;;;5033437;28;19916;-70
2023/09/24 18:06:57;;;;;;;;;;;13.20;83.70;;;;;;5051396;28;20367;-69
2023/09/24 18:09:23;;;;;;;;;;;13.10;83.80;;;;;;5051674;28;20283;-69
2023/09/24 18:11:50;;;;;;;;;;;13.00;83.70;;;;;;5052519;28;19923;-69
2023/09/24 18:14:16;;;;;;;;;;;13.00;83.80;;;;;;5053189;28;19927;-69
2023/09/24 18:16:43;;;;;;;;;;;13.00;83.80;;;;;;5050138;28;19932;-70
2023/09/24 18:19:10;;;;;;;;;;;13.00;83.90;;;;;;5032835;28;20328;-70
2023/09/24 18:21:36;;;;;;;;;;;13.00;83.60;;;;;;5050909;28;19905;-70
2023/09/24 18:24:03;;;;;;;;;;;13.00;84.00;;;;;;5042719;28;19915;-70
2023/09/24 18:26:30;;;;;;;;;;;13.00;83.90;;;;;;5034084;28;20449;-70
2023/09/24 18:28:57;;;;;;;;;;;13.00;83.80;;;;;;5051563;28;19913;-70
2023/09/24 18:31:23;;;;;;;;;;;13.00;83.70;;;;;;5038930;28;21007;-70
2023/09/24 18:33:50;;;;;;;;;;;12.90;83.60;;;;;;5051861;28;19952;-70
2023/09/24 18:36:17;;;;;;;;;;;13.00;83.50;;;;;;5045061;28;19912;-70
2023/09/24 18:38:43;;;;;;;;;;;12.90;83.80;;;;;;5036983;28;19908;-70
2023/09/24 18:41:14;;;;;;;;;;;12.90;83.70;;;;;;5052373;28;19958;-69
2023/09/24 18:43:41;;;;;;;;;;;12.90;83.70;;;;;;5034643;28;19927;-69
2023/09/24 18:46:08;;;;;;;;;;;12.90;83.90;;;;;;5052400;28;19905;-70
2023/09/24 18:48:36;;;;;;;;;;;12.90;83.60;;;;;;5050179;28;20256;-70
2023/09/24 18:51:10;;;;;;;;;;;12.90;83.50;;;;;;5051221;28;20422;-69
2023/09/24 18:53:37;;;;;;;;;;;12.80;83.30;;;;;;5052276;28;19988;-69
2023/09/24 18:56:04;;;;;;;;;;;12.80;83.30;;;;;;5051966;28;19917;-69
2023/09/24 18:58:33;;;;;;;;;;;12.80;83.40;;;;;;5051722;28;19999;-70
2023/09/24 19:01:05;;;;;;;;;;;12.80;83.30;;;;;;5058543;28;20004;-70
2023/09/24 19:03:32;;;;;;;;;;;12.70;83.40;;;;;;5041524;28;19905;-71
2023/09/24 19:06:03;;;;;;;;;;;12.70;83.60;;;;;;5059125;28;19905;-70
2023/09/24 19:08:29;;;;;;;;;;;12.80;83.50;;;;;;5057411;28;19917;-70
2023/09/24 19:10:56;;;;;;;;;;;12.80;83.80;;;;;;5058662;28;19944;-70
2023/09/24 19:13:28;;;;;;;;;;;12.70;84.00;;;;;;5058604;28;20384;-70
2023/09/24 19:16:05;;;;;;;;;;;12.80;84.10;;;;;;5058668;28;19959;-70
2023/09/24 19:18:32;;;;;;;;;;;12.80;84.00;;;;;;5057691;28;20414;-70
2023/09/24 19:20:59;;;;;;;;;;;12.80;84.20;;;;;;5057375;28;19909;-70
2023/09/24 19:23:25;;;;;;;;;;;12.70;83.90;;;;;;5024400;28;20278;-70
2023/09/24 19:25:52;;;;;;;;;;;12.80;84.20;;;;;;5041293;28;19967;-70
2023/09/24 19:28:18;;;;;;;;;;;12.70;84.00;;;;;;5057144;28;20027;-70
2023/09/24 19:30:45;;;;;;;;;;;12.70;84.10;;;;;;5058693;28;19912;-70
2023/09/24 19:33:12;;;;;;;;;;;12.60;84.00;;;;;;5058883;28;20317;-70
2023/09/24 19:35:38;;;;;;;;;;;12.50;84.10;;;;;;5058795;28;19913;-70
2023/09/24 19:38:05;;;;;;;;;;;12.50;84.20;;;;;;5057994;28;19909;-70
2023/09/24 19:40:31;;;;;;;;;;;12.50;84.40;;;;;;5057465;28;19999;-70
2023/09/24 19:43:00;;;;;;;;;;;12.50;84.60;;;;;;5058741;28;20384;-70
2023/09/24 19:45:27;;;;;;;;;;;12.50;84.60;;;;;;5058492;28;20422;-70
2023/09/24 19:47:53;;;;;;;;;;;12.50;84.80;;;;;;5039638;28;19913;-70
2023/09/24 19:50:20;;;;;;;;;;;12.50;85.10;;;;;;5057485;28;20367;-70
2023/09/24 19:52:46;;;;;;;;;;;12.50;85.10;;;;;;5057459;28;19916;-70
2023/09/24 19:55:13;;;;;;;;;;;12.50;84.90;;;;;;5058391;28;20028;-70
2023/09/24 19:57:41;;;;;;;;;;;12.60;84.70;;;;;;5057541;28;20003;-70
2023/09/24 20:00:08;;;;;;;;;;;12.60;84.30;;;;;;5057343;28;19935;-68
2023/09/24 20:02:35;;;;;;;;;;;12.70;84.20;;;;;;5057302;28;19916;-70
2023/09/24 20:05:01;;;;;;;;;;;12.70;83.90;;;;;;5058614;28;20008;-70
2023/09/24 20:07:28;;;;;;;;;;;12.70;83.70;;;;;;5058203;28;19943;-70
2023/09/24 20:09:56;;;;;;;;;;;12.70;83.70;;;;;;5054342;28;20347;-68
2023/09/24 20:12:26;;;;;;;;;;;12.70;83.30;;;;;;5055156;28;19905;-69
2023/09/24 20:14:53;;;;;;;;;;;12.70;83.20;;;;;;5037022;28;19924;-69
2023/09/24 20:17:20;;;;;;;;;;;12.70;83.40;;;;;;5053767;28;20363;-69
2023/09/24 20:19:47;;;;;;;;;;;12.70;83.00;;;;;;5053375;28;19913;-69
2023/09/24 20:22:13;;;;;;;;;;;12.70;82.60;;;;;;5035961;28;19917;-69
2023/09/24 20:24:40;;;;;;;;;;;12.80;82.30;;;;;;5054673;28;20325;-69
2023/09/24 20:27:06;;;;;;;;;;;12.80;82.10;;;;;;5018615;28;19913;-69
2023/09/24 20:29:34;;;;;;;;;;;12.90;82.00;;;;;;5053501;28;19909;-69
2023/09/24 20:32:00;;;;;;;;;;;12.90;82.00;;;;;;5054335;28;19951;-69
2023/09/24 20:34:27;;;;;;;;;;;13.00;81.90;;;;;;5054733;28;20011;-69
2023/09/24 20:36:53;;;;;;;;;;;13.00;81.80;;;;;;5037350;28;20312;-69
2023/09/24 20:39:21;;;;;;;;;;;13.00;81.80;;;;;;5053101;28;19985;-69
2023/09/24 20:41:53;;;;;;;;;;;13.10;81.60;;;;;;5035894;28;20003;-69
2023/09/24 20:44:20;;;;;;;;;;;13.10;81.40;;;;;;5037159;28;20004;-69
2023/09/24 20:46:46;;;;;;;;;;;13.20;81.60;;;;;;5034687;28;19951;-69
2023/09/24 20:49:13;;;;;;;;;;;13.20;81.60;;;;;;5031889;28;20259;-69
2023/09/24 20:51:40;;;;;;;;;;;13.20;81.50;;;;;;5033766;28;19905;-69
2023/09/24 20:54:06;;;;;;;;;;;13.30;81.30;;;;;;5034295;28;20283;-68
2023/09/24 20:56:34;;;;;;;;;;;13.30;81.40;;;;;;5034515;28;19916;-69
2023/09/24 20:59:02;;;;;;;;;;;13.30;81.20;;;;;;5032705;28;19916;-69
2023/09/24 21:01:29;;;;;;;;;;;13.40;81.20;;;;;;5016600;28;19916;-69
2023/09/24 21:03:55;;;;;;;;;;;13.40;81.10;;;;;;5034244;28;19909;-69
2023/09/24 21:06:22;;;;;;;;;;;13.40;81.00;;;;;;5034452;28;20265;-69
2023/09/24 21:08:48;;;;;;;;;;;13.50;80.90;;;;;;5033500;28;19909;-69
2023/09/24 21:11:15;;;;;;;;;;;13.60;80.90;;;;;;5033964;28;19905;-69
2023/09/24 21:13:43;;;;;;;;;;;13.60;81.20;;;;;;5016527;28;19908;-68
2023/09/24 21:16:10;;;;;;;;;;;13.70;81.20;;;;;;4999277;28;20008;-69
2023/09/24 21:18:37;;;;;;;;;;;13.70;80.70;;;;;;5032086;28;20266;-68
2023/09/24 21:21:03;;;;;;;;;;;13.80;80.80;;;;;;5015077;28;20578;-69
2023/09/24 21:23:30;;;;;;;;;;;13.80;80.80;;;;;;5033956;28;19906;-68
2023/09/24 21:26:00;;;;;;;;;;;13.90;80.20;;;;;;5033920;28;20379;-68
2023/09/24 21:28:27;;;;;;;;;;;14.00;80.20;;;;;;5016492;28;19913;-68
2023/09/24 21:31:01;;;;;;;;;;;14.10;80.40;;;;;;5032766;28;19984;-69
2023/09/24 21:33:27;;;;;;;;;;;14.10;80.20;;;;;;5015140;28;20370;-71
2023/09/24 21:35:54;;;;;;;;;;;14.10;79.70;;;;;;5016083;28;19913;-69
2023/09/24 21:38:20;;;;;;;;;;;14.20;79.70;;;;;;5033738;28;19905;-69
2023/09/24 21:40:47;;;;;;;;;;;14.20;79.70;;;;;;5033496;28;20330;-69
2023/09/24 21:43:13;;;;;;;;;;;14.30;79.10;;;;;;5040669;28;19924;-68
2023/09/24 21:45:40;;;;;;;;;;;14.30;79.30;;;;;;5053256;28;19912;-68
2023/09/24 21:48:07;;;;;;;;;;;14.30;79.00;;;;;;5053113;28;19905;-68
2023/09/24 21:50:33;;;;;;;;;;;14.40;79.20;;;;;;5051944;28;19912;-68
2023/09/24 21:53:00;;;;;;;;;;;14.40;79.30;;;;;;5053316;28;19905;-69
2023/09/24 21:55:30;;;;;;;;;;;14.50;78.90;;;;;;5053722;28;20294;-69
2023/09/24 21:57:57;;;;;;;;;;;14.60;78.90;;;;;;5053673;28;19909;-68
2023/09/24 22:00:25;;;;;;;;;;;14.70;78.90;;;;;;5053428;28;19927;-69
2023/09/24 22:02:52;;;;;;;;;;;14.70;78.20;;;;;;5053292;28;19911;-68
2023/09/24 22:05:18;;;;;;;;;;;14.70;78.10;;;;;;5052915;28;19909;-68
2023/09/24 22:07:45;;;;;;;;;;;14.80;78.30;;;;;;5052766;28;20867;-69
2023/09/24 22:10:11;;;;;;;;;;;14.90;78.40;;;;;;5052991;28;19908;-69
2023/09/24 22:12:39;;;;;;;;;;;15.00;78.30;;;;;;5053268;28;19966;-69
2023/09/24 22:15:06;;;;;;;;;;;15.00;78.20;;;;;;5053042;28;20326;-69
2023/09/24 22:17:33;;;;;;;;;;;15.10;77.90;;;;;;5053250;28;19958;-68
2023/09/24 22:20:00;;;;;;;;;;;15.10;77.90;;;;;;5052487;28;19908;-69
2023/09/24 22:22:26;;;;;;;;;;;15.20;77.30;;;;;;5052545;28;20298;-69
2023/09/24 22:24:53;;;;;;;;;;;15.20;77.10;;;;;;5035162;28;20015;-68
